sensor_id;sensor_type;location;lat;lon;timestamp;P1;durP1;ratioP1;P2;durP2;ratioP2
55216;SDS011;41086;46.736;15.666;2023-03-01T00:48:34;26.92;;;12.80;;
55216;SDS011;41086;46.736;15.666;2023-03-01T00:51:08;27.90;;;14.38;;
55216;SDS011;41086;46.736;15.666;2023-03-01T00:53:37;27.95;;;14.90;;
55216;SDS011;41086;46.736;15.666;2023-03-01T00:56:04;29.45;;;16.40;;
55216;SDS011;41086;46.736;15.666;2023-03-01T00:58:32;28.65;;;15.38;;
55216;SDS011;41086;46.736;15.666;2023-03-01T01:01:00;29.67;;;15.30;;
55216;SDS011;41086;46.736;15.666;2023-03-01T01:03:33;28.33;;;15.52;;
55216;SDS011;41086;46.736;15.666;2023-03-01T01:06:00;29.95;;;15.20;;
55216;SDS011;41086;46.736;15.666;2023-03-01T01:08:35;32.63;;;15.63;;
55216;SDS011;41086;46.736;15.666;2023-03-01T01:11:02;32.58;;;14.73;;
55216;SDS011;41086;46.736;15.666;2023-03-01T01:13:28;28.23;;;15.38;;
55216;SDS011;41086;46.736;15.666;2023-03-01T01:15:59;27.23;;;15.73;;
55216;SDS011;41086;46.736;15.666;2023-03-01T01:18:27;29.42;;;16.30;;
55216;SDS011;41086;46.736;15.666;2023-03-01T01:20:54;30.38;;;16.88;;
55216;SDS011;41086;46.736;15.666;2023-03-01T01:23:20;34.17;;;15.32;;
55216;SDS011;41086;46.736;15.666;2023-03-01T01:25:47;26.30;;;13.80;;
55216;SDS011;41086;46.736;15.666;2023-03-01T01:28:14;30.25;;;14.70;;
55216;SDS011;41086;46.736;15.666;2023-03-01T01:30:42;39.25;;;15.55;;
55216;SDS011;41086;46.736;15.666;2023-03-01T01:33:08;30.63;;;16.15;;
55216;SDS011;41086;46.736;15.666;2023-03-01T01:35:35;32.55;;;15.23;;
55216;SDS011;41086;46.736;15.666;2023-03-01T01:38:02;26.55;;;13.88;;
55216;SDS011;41086;46.736;15.666;2023-03-01T01:40:29;32.53;;;15.70;;
55216;SDS011;41086;46.736;15.666;2023-03-01T01:42:56;30.02;;;15.77;;
55216;SDS011;41086;46.736;15.666;2023-03-01T01:45:31;26.80;;;13.27;;
55216;SDS011;41086;46.736;15.666;2023-03-01T01:48:03;26.77;;;12.63;;
55216;SDS011;41086;46.736;15.666;2023-03-01T01:50:33;30.05;;;14.07;;
55216;SDS011;41086;46.736;15.666;2023-03-01T01:53:05;22.90;;;12.45;;
55216;SDS011;41086;46.736;15.666;2023-03-01T01:55:37;25.35;;;13.10;;
55216;SDS011;41086;46.736;15.666;2023-03-01T01:58:18;28.38;;;14.05;;
55216;SDS011;41086;46.736;15.666;2023-03-01T02:00:47;24.65;;;13.80;;
55216;SDS011;41086;46.736;15.666;2023-03-01T02:03:33;33.03;;;15.20;;
55216;SDS011;41086;46.736;15.666;2023-03-01T02:06:47;34.60;;;14.73;;
55216;SDS011;41086;46.736;15.666;2023-03-01T02:09:04;25.90;;;13.20;;
55216;SDS011;41086;46.736;15.666;2023-03-01T02:11:35;26.92;;;12.70;;
55216;SDS011;41086;46.736;15.666;2023-03-01T02:14:04;26.77;;;10.45;;
55216;SDS011;41086;46.736;15.666;2023-03-01T02:16:30;25.17;;;11.18;;
55216;SDS011;41086;46.736;15.666;2023-03-01T02:18:58;25.48;;;12.95;;
55216;SDS011;41086;46.736;15.666;2023-03-01T02:23:55;22.10;;;11.43;;
55216;SDS011;41086;46.736;15.666;2023-03-01T02:26:29;21.92;;;12.05;;
55216;SDS011;41086;46.736;15.666;2023-03-01T02:29:03;27.50;;;12.25;;
55216;SDS011;41086;46.736;15.666;2023-03-01T02:31:31;23.70;;;13.63;;
55216;SDS011;41086;46.736;15.666;2023-03-01T02:34:11;29.75;;;14.38;;
55216;SDS011;41086;46.736;15.666;2023-03-01T02:36:43;25.90;;;13.20;;
55216;SDS011;41086;46.736;15.666;2023-03-01T02:39:50;25.50;;;12.60;;
55216;SDS011;41086;46.736;15.666;2023-03-01T02:42:13;17.38;;;8.60;;
55216;SDS011;41086;46.736;15.666;2023-03-01T02:44:46;30.17;;;13.25;;
55216;SDS011;41086;46.736;15.666;2023-03-01T02:47:15;31.42;;;16.55;;
55216;SDS011;41086;46.736;15.666;2023-03-01T02:49:42;31.30;;;16.52;;
55216;SDS011;41086;46.736;15.666;2023-03-01T02:52:28;31.52;;;15.77;;
55216;SDS011;41086;46.736;15.666;2023-03-01T02:55:03;26.15;;;14.77;;
55216;SDS011;41086;46.736;15.666;2023-03-01T02:57:36;24.73;;;12.25;;
55216;SDS011;41086;46.736;15.666;2023-03-01T03:00:07;27.13;;;14.98;;
55216;SDS011;41086;46.736;15.666;2023-03-01T03:02:48;29.08;;;15.15;;
55216;SDS011;41086;46.736;15.666;2023-03-01T03:05:19;24.42;;;13.02;;
55216;SDS011;41086;46.736;15.666;2023-03-01T03:07:51;25.73;;;14.85;;
55216;SDS011;41086;46.736;15.666;2023-03-01T03:10:25;32.40;;;16.55;;
55216;SDS011;41086;46.736;15.666;2023-03-01T03:12:55;34.03;;;17.08;;
55216;SDS011;41086;46.736;15.666;2023-03-01T03:15:25;31.73;;;15.00;;
55216;SDS011;41086;46.736;15.666;2023-03-01T03:17:54;32.22;;;17.75;;
55216;SDS011;41086;46.736;15.666;2023-03-01T03:20:23;35.97;;;16.75;;
55216;SDS011;41086;46.736;15.666;2023-03-01T03:22:53;37.55;;;17.83;;
55216;SDS011;41086;46.736;15.666;2023-03-01T03:25:21;30.80;;;15.73;;
55216;SDS011;41086;46.736;15.666;2023-03-01T03:27:50;31.27;;;16.33;;
55216;SDS011;41086;46.736;15.666;2023-03-01T03:30:30;39.95;;;16.95;;
55216;SDS011;41086;46.736;15.666;2023-03-01T03:32:58;27.83;;;15.15;;
55216;SDS011;41086;46.736;15.666;2023-03-01T03:35:30;38.08;;;18.83;;
55216;SDS011;41086;46.736;15.666;2023-03-01T03:38:05;34.13;;;16.38;;
55216;SDS011;41086;46.736;15.666;2023-03-01T03:40:36;29.60;;;16.40;;
55216;SDS011;41086;46.736;15.666;2023-03-01T03:43:08;26.80;;;15.20;;
55216;SDS011;41086;46.736;15.666;2023-03-01T03:45:37;30.38;;;15.85;;
55216;SDS011;41086;46.736;15.666;2023-03-01T03:48:04;28.92;;;14.32;;
55216;SDS011;41086;46.736;15.666;2023-03-01T03:50:33;30.50;;;16.45;;
55216;SDS011;41086;46.736;15.666;2023-03-01T03:53:00;26.40;;;15.77;;
55216;SDS011;41086;46.736;15.666;2023-03-01T03:55:28;34.40;;;15.63;;
55216;SDS011;41086;46.736;15.666;2023-03-01T03:57:57;30.70;;;15.40;;
55216;SDS011;41086;46.736;15.666;2023-03-01T04:00:28;26.50;;;13.27;;
55216;SDS011;41086;46.736;15.666;2023-03-01T04:02:55;33.15;;;15.10;;
55216;SDS011;41086;46.736;15.666;2023-03-01T04:05:22;22.30;;;12.05;;
55216;SDS011;41086;46.736;15.666;2023-03-01T04:10:27;25.15;;;12.10;;
55216;SDS011;41086;46.736;15.666;2023-03-01T04:12:58;22.13;;;13.35;;
55216;SDS011;41086;46.736;15.666;2023-03-01T04:15:26;28.92;;;13.05;;
55216;SDS011;41086;46.736;15.666;2023-03-01T04:17:53;18.45;;;10.50;;
55216;SDS011;41086;46.736;15.666;2023-03-01T04:20:22;31.73;;;14.48;;
55216;SDS011;41086;46.736;15.666;2023-03-01T04:22:57;30.73;;;14.98;;
55216;SDS011;41086;46.736;15.666;2023-03-01T04:30:51;30.42;;;16.58;;
55216;SDS011;41086;46.736;15.666;2023-03-01T04:33:19;38.88;;;16.23;;
55216;SDS011;41086;46.736;15.666;2023-03-01T04:38:16;31.00;;;16.25;;
55216;SDS011;41086;46.736;15.666;2023-03-01T04:40:44;29.85;;;15.85;;
55216;SDS011;41086;46.736;15.666;2023-03-01T04:43:11;35.08;;;17.80;;
55216;SDS011;41086;46.736;15.666;2023-03-01T04:45:41;33.17;;;17.70;;
55216;SDS011;41086;46.736;15.666;2023-03-01T04:48:09;29.00;;;16.50;;
55216;SDS011;41086;46.736;15.666;2023-03-01T04:50:35;29.10;;;16.88;;
55216;SDS011;41086;46.736;15.666;2023-03-01T04:53:02;34.75;;;16.95;;
55216;SDS011;41086;46.736;15.666;2023-03-01T04:55:29;26.95;;;15.80;;
55216;SDS011;41086;46.736;15.666;2023-03-01T04:57:56;30.42;;;15.88;;
55216;SDS011;41086;46.736;15.666;2023-03-01T05:00:23;29.33;;;15.60;;
55216;SDS011;41086;46.736;15.666;2023-03-01T05:02:51;25.63;;;14.45;;
55216;SDS011;41086;46.736;15.666;2023-03-01T05:05:26;31.95;;;16.95;;
55216;SDS011;41086;46.736;15.666;2023-03-01T05:07:58;32.83;;;15.68;;
55216;SDS011;41086;46.736;15.666;2023-03-01T05:10:27;30.10;;;17.27;;
55216;SDS011;41086;46.736;15.666;2023-03-01T05:12:56;35.03;;;16.23;;
55216;SDS011;41086;46.736;15.666;2023-03-01T05:15:24;31.50;;;14.63;;
55216;SDS011;41086;46.736;15.666;2023-03-01T05:17:53;26.85;;;14.90;;
55216;SDS011;41086;46.736;15.666;2023-03-01T05:20:21;31.40;;;16.13;;
55216;SDS011;41086;46.736;15.666;2023-03-01T05:22:51;27.98;;;14.85;;
55216;SDS011;41086;46.736;15.666;2023-03-01T05:25:21;32.63;;;16.05;;
55216;SDS011;41086;46.736;15.666;2023-03-01T05:27:48;26.60;;;15.88;;
55216;SDS011;41086;46.736;15.666;2023-03-01T05:30:15;30.73;;;15.02;;
55216;SDS011;41086;46.736;15.666;2023-03-01T05:32:43;32.08;;;15.82;;
55216;SDS011;41086;46.736;15.666;2023-03-01T05:35:12;33.65;;;16.90;;
55216;SDS011;41086;46.736;15.666;2023-03-01T05:37:40;29.38;;;15.98;;
55216;SDS011;41086;46.736;15.666;2023-03-01T05:40:13;35.97;;;18.70;;
55216;SDS011;41086;46.736;15.666;2023-03-01T05:42:45;32.58;;;17.77;;
55216;SDS011;41086;46.736;15.666;2023-03-01T05:45:13;28.05;;;16.58;;
55216;SDS011;41086;46.736;15.666;2023-03-01T05:47:41;27.98;;;15.95;;
55216;SDS011;41086;46.736;15.666;2023-03-01T05:50:13;39.83;;;20.58;;
55216;SDS011;41086;46.736;15.666;2023-03-01T05:52:46;32.25;;;16.23;;
55216;SDS011;41086;46.736;15.666;2023-03-01T05:55:15;30.45;;;16.45;;
55216;SDS011;41086;46.736;15.666;2023-03-01T05:57:44;31.60;;;15.63;;
55216;SDS011;41086;46.736;15.666;2023-03-01T06:00:11;27.20;;;15.07;;
55216;SDS011;41086;46.736;15.666;2023-03-01T06:02:40;30.35;;;16.38;;
55216;SDS011;41086;46.736;15.666;2023-03-01T06:07:35;59.78;;;25.58;;
55216;SDS011;41086;46.736;15.666;2023-03-01T06:10:03;31.55;;;17.38;;
55216;SDS011;41086;46.736;15.666;2023-03-01T06:12:31;28.13;;;15.48;;
55216;SDS011;41086;46.736;15.666;2023-03-01T06:14:59;32.85;;;16.48;;
55216;SDS011;41086;46.736;15.666;2023-03-01T06:17:28;32.53;;;16.65;;
55216;SDS011;41086;46.736;15.666;2023-03-01T06:19:55;28.73;;;14.52;;
55216;SDS011;41086;46.736;15.666;2023-03-01T06:22:22;31.33;;;17.60;;
55216;SDS011;41086;46.736;15.666;2023-03-01T06:24:49;32.17;;;15.43;;
55216;SDS011;41086;46.736;15.666;2023-03-01T06:27:16;25.77;;;14.43;;
55216;SDS011;41086;46.736;15.666;2023-03-01T06:29:42;25.70;;;15.07;;
55216;SDS011;41086;46.736;15.666;2023-03-01T06:32:09;29.80;;;15.20;;
55216;SDS011;41086;46.736;15.666;2023-03-01T06:34:36;24.35;;;14.88;;
55216;SDS011;41086;46.736;15.666;2023-03-01T06:37:03;23.05;;;11.50;;
55216;SDS011;41086;46.736;15.666;2023-03-01T06:39:31;21.75;;;10.70;;
55216;SDS011;41086;46.736;15.666;2023-03-01T06:44:25;20.98;;;10.68;;
55216;SDS011;41086;46.736;15.666;2023-03-01T06:49:19;19.33;;;10.10;;
55216;SDS011;41086;46.736;15.666;2023-03-01T06:51:47;23.33;;;12.40;;
55216;SDS011;41086;46.736;15.666;2023-03-01T06:54:14;16.02;;;8.90;;
55216;SDS011;41086;46.736;15.666;2023-03-01T06:56:40;22.75;;;9.88;;
55216;SDS011;41086;46.736;15.666;2023-03-01T06:59:07;24.88;;;11.27;;
55216;SDS011;41086;46.736;15.666;2023-03-01T07:01:34;21.27;;;11.18;;
55216;SDS011;41086;46.736;15.666;2023-03-01T07:04:01;26.85;;;14.05;;
55216;SDS011;41086;46.736;15.666;2023-03-01T07:06:27;32.22;;;17.63;;
55216;SDS011;41086;46.736;15.666;2023-03-01T07:11:21;27.73;;;13.52;;
55216;SDS011;41086;46.736;15.666;2023-03-01T07:13:49;48.53;;;19.27;;
55216;SDS011;41086;46.736;15.666;2023-03-01T07:16:16;28.33;;;14.32;;
55216;SDS011;41086;46.736;15.666;2023-03-01T07:18:43;24.60;;;13.18;;
55216;SDS011;41086;46.736;15.666;2023-03-01T07:21:11;27.90;;;15.25;;
55216;SDS011;41086;46.736;15.666;2023-03-01T07:23:40;27.00;;;10.85;;
55216;SDS011;41086;46.736;15.666;2023-03-01T07:26:07;44.35;;;12.43;;
55216;SDS011;41086;46.736;15.666;2023-03-01T07:28:34;30.25;;;13.73;;
55216;SDS011;41086;46.736;15.666;2023-03-01T07:31:02;32.67;;;14.30;;
55216;SDS011;41086;46.736;15.666;2023-03-01T07:33:29;32.42;;;14.70;;
55216;SDS011;41086;46.736;15.666;2023-03-01T07:35:57;23.90;;;12.48;;
55216;SDS011;41086;46.736;15.666;2023-03-01T07:38:26;20.80;;;11.32;;
55216;SDS011;41086;46.736;15.666;2023-03-01T07:40:53;18.67;;;10.25;;
55216;SDS011;41086;46.736;15.666;2023-03-01T07:43:23;23.30;;;12.10;;
55216;SDS011;41086;46.736;15.666;2023-03-01T07:45:50;19.90;;;9.70;;
55216;SDS011;41086;46.736;15.666;2023-03-01T07:48:18;23.98;;;13.55;;
55216;SDS011;41086;46.736;15.666;2023-03-01T07:50:44;21.58;;;12.35;;
55216;SDS011;41086;46.736;15.666;2023-03-01T07:53:11;21.75;;;11.48;;
55216;SDS011;41086;46.736;15.666;2023-03-01T07:55:38;12.45;;;7.47;;
55216;SDS011;41086;46.736;15.666;2023-03-01T07:58:05;20.95;;;11.63;;
55216;SDS011;41086;46.736;15.666;2023-03-01T08:00:32;22.58;;;12.65;;
55216;SDS011;41086;46.736;15.666;2023-03-01T08:02:59;24.13;;;11.80;;
55216;SDS011;41086;46.736;15.666;2023-03-01T08:05:27;20.48;;;9.80;;
55216;SDS011;41086;46.736;15.666;2023-03-01T08:07:55;30.95;;;11.38;;
55216;SDS011;41086;46.736;15.666;2023-03-01T08:10:21;25.92;;;15.10;;
55216;SDS011;41086;46.736;15.666;2023-03-01T08:12:50;23.30;;;11.43;;
55216;SDS011;41086;46.736;15.666;2023-03-01T08:15:17;18.55;;;8.95;;
55216;SDS011;41086;46.736;15.666;2023-03-01T08:20:11;15.38;;;9.43;;
55216;SDS011;41086;46.736;15.666;2023-03-01T08:22:39;21.90;;;9.27;;
55216;SDS011;41086;46.736;15.666;2023-03-01T08:25:05;18.15;;;10.68;;
55216;SDS011;41086;46.736;15.666;2023-03-01T08:27:32;24.38;;;12.32;;
55216;SDS011;41086;46.736;15.666;2023-03-01T08:29:59;20.33;;;9.52;;
55216;SDS011;41086;46.736;15.666;2023-03-01T08:32:26;17.65;;;11.63;;
55216;SDS011;41086;46.736;15.666;2023-03-01T08:34:53;24.98;;;11.90;;
55216;SDS011;41086;46.736;15.666;2023-03-01T08:37:19;19.80;;;9.85;;
55216;SDS011;41086;46.736;15.666;2023-03-01T08:39:46;24.20;;;12.52;;
55216;SDS011;41086;46.736;15.666;2023-03-01T08:42:13;14.80;;;8.98;;
55216;SDS011;41086;46.736;15.666;2023-03-01T08:44:39;17.58;;;11.43;;
55216;SDS011;41086;46.736;15.666;2023-03-01T08:47:06;22.30;;;11.27;;
55216;SDS011;41086;46.736;15.666;2023-03-01T08:49:33;20.42;;;9.00;;
55216;SDS011;41086;46.736;15.666;2023-03-01T08:52:01;24.33;;;10.27;;
55216;SDS011;41086;46.736;15.666;2023-03-01T08:54:28;20.60;;;11.00;;
55216;SDS011;41086;46.736;15.666;2023-03-01T08:56:55;22.25;;;10.88;;
55216;SDS011;41086;46.736;15.666;2023-03-01T08:59:22;19.88;;;9.95;;
55216;SDS011;41086;46.736;15.666;2023-03-01T09:01:49;18.05;;;10.77;;
55216;SDS011;41086;46.736;15.666;2023-03-01T09:04:15;18.42;;;9.45;;
55216;SDS011;41086;46.736;15.666;2023-03-01T09:06:43;24.08;;;11.38;;
55216;SDS011;41086;46.736;15.666;2023-03-01T09:09:16;18.17;;;8.75;;
55216;SDS011;41086;46.736;15.666;2023-03-01T09:11:45;18.77;;;10.57;;
55216;SDS011;41086;46.736;15.666;2023-03-01T09:14:13;22.80;;;11.68;;
55216;SDS011;41086;46.736;15.666;2023-03-01T09:16:40;20.30;;;10.07;;
55216;SDS011;41086;46.736;15.666;2023-03-01T09:19:07;19.67;;;9.70;;
55216;SDS011;41086;46.736;15.666;2023-03-01T09:21:34;21.27;;;9.90;;
55216;SDS011;41086;46.736;15.666;2023-03-01T09:24:06;14.35;;;8.20;;
55216;SDS011;41086;46.736;15.666;2023-03-01T09:26:39;21.00;;;11.02;;
55216;SDS011;41086;46.736;15.666;2023-03-01T09:29:06;18.00;;;8.80;;
55216;SDS011;41086;46.736;15.666;2023-03-01T09:31:33;17.05;;;10.10;;
55216;SDS011;41086;46.736;15.666;2023-03-01T09:33:59;17.95;;;9.30;;
55216;SDS011;41086;46.736;15.666;2023-03-01T09:36:26;24.75;;;12.32;;
55216;SDS011;41086;46.736;15.666;2023-03-01T09:38:53;24.63;;;11.15;;
55216;SDS011;41086;46.736;15.666;2023-03-01T09:46:44;13.20;;;8.13;;
55216;SDS011;41086;46.736;15.666;2023-03-01T09:49:14;17.20;;;10.00;;
55216;SDS011;41086;46.736;15.666;2023-03-01T09:51:50;14.65;;;8.02;;
55216;SDS011;41086;46.736;15.666;2023-03-01T09:54:22;19.42;;;7.95;;
55216;SDS011;41086;46.736;15.666;2023-03-01T09:57:04;13.80;;;8.45;;
55216;SDS011;41086;46.736;15.666;2023-03-01T09:59:35;15.15;;;9.55;;
55216;SDS011;41086;46.736;15.666;2023-03-01T10:02:21;18.55;;;10.35;;
55216;SDS011;41086;46.736;15.666;2023-03-01T10:04:58;16.88;;;9.18;;
55216;SDS011;41086;46.736;15.666;2023-03-01T10:07:49;18.88;;;10.63;;
55216;SDS011;41086;46.736;15.666;2023-03-01T10:10:46;25.52;;;10.48;;
55216;SDS011;41086;46.736;15.666;2023-03-01T10:13:16;20.45;;;10.95;;
55216;SDS011;41086;46.736;15.666;2023-03-01T10:15:53;21.17;;;11.75;;
55216;SDS011;41086;46.736;15.666;2023-03-01T10:18:26;18.25;;;9.77;;
55216;SDS011;41086;46.736;15.666;2023-03-01T10:23:32;21.23;;;9.63;;
55216;SDS011;41086;46.736;15.666;2023-03-01T10:29:03;18.88;;;9.75;;
55216;SDS011;41086;46.736;15.666;2023-03-01T10:31:41;13.07;;;8.15;;
55216;SDS011;41086;46.736;15.666;2023-03-01T10:34:13;21.13;;;10.25;;
55216;SDS011;41086;46.736;15.666;2023-03-01T10:36:47;18.95;;;9.98;;
55216;SDS011;41086;46.736;15.666;2023-03-01T10:39:23;18.75;;;9.18;;
55216;SDS011;41086;46.736;15.666;2023-03-01T10:41:53;15.93;;;9.18;;
55216;SDS011;41086;46.736;15.666;2023-03-01T10:44:37;22.60;;;9.60;;
55216;SDS011;41086;46.736;15.666;2023-03-01T10:47:05;18.70;;;8.50;;
55216;SDS011;41086;46.736;15.666;2023-03-01T10:49:38;16.38;;;9.60;;
55216;SDS011;41086;46.736;15.666;2023-03-01T10:52:18;21.65;;;10.43;;
55216;SDS011;41086;46.736;15.666;2023-03-01T10:54:57;17.63;;;9.35;;
55216;SDS011;41086;46.736;15.666;2023-03-01T10:57:28;17.38;;;9.65;;
55216;SDS011;41086;46.736;15.666;2023-03-01T11:00:18;20.33;;;9.38;;
55216;SDS011;41086;46.736;15.666;2023-03-01T11:02:50;28.23;;;12.07;;
55216;SDS011;41086;46.736;15.666;2023-03-01T11:05:36;21.60;;;10.70;;
55216;SDS011;41086;46.736;15.666;2023-03-01T11:08:03;20.75;;;10.35;;
55216;SDS011;41086;46.736;15.666;2023-03-01T11:10:31;18.08;;;9.18;;
55216;SDS011;41086;46.736;15.666;2023-03-01T11:13:07;24.45;;;13.77;;
55216;SDS011;41086;46.736;15.666;2023-03-01T11:15:40;19.92;;;10.95;;
55216;SDS011;41086;46.736;15.666;2023-03-01T11:18:21;21.50;;;11.45;;
55216;SDS011;41086;46.736;15.666;2023-03-01T11:21:06;18.50;;;9.93;;
55216;SDS011;41086;46.736;15.666;2023-03-01T11:23:34;18.88;;;10.02;;
55216;SDS011;41086;46.736;15.666;2023-03-01T11:26:07;22.30;;;12.25;;
55216;SDS011;41086;46.736;15.666;2023-03-01T11:28:38;18.58;;;10.02;;
55216;SDS011;41086;46.736;15.666;2023-03-01T11:31:09;17.52;;;8.40;;
55216;SDS011;41086;46.736;15.666;2023-03-01T11:33:46;23.77;;;11.07;;
55216;SDS011;41086;46.736;15.666;2023-03-01T11:36:47;26.45;;;12.50;;
55216;SDS011;41086;46.736;15.666;2023-03-01T11:42:17;28.23;;;12.82;;
55216;SDS011;41086;46.736;15.666;2023-03-01T11:44:47;21.77;;;11.13;;
55216;SDS011;41086;46.736;15.666;2023-03-01T11:47:33;25.42;;;11.57;;
55216;SDS011;41086;46.736;15.666;2023-03-01T11:50:24;20.57;;;11.13;;
55216;SDS011;41086;46.736;15.666;2023-03-01T11:59:25;22.67;;;10.95;;
55216;SDS011;41086;46.736;15.666;2023-03-01T12:13:33;24.75;;;12.40;;
55216;SDS011;41086;46.736;15.666;2023-03-01T12:15:55;16.42;;;9.68;;
55216;SDS011;41086;46.736;15.666;2023-03-01T12:18:45;22.00;;;10.70;;
55216;SDS011;41086;46.736;15.666;2023-03-01T12:27:03;25.67;;;12.07;;
55216;SDS011;41086;46.736;15.666;2023-03-01T12:43:31;22.48;;;12.13;;
55216;SDS011;41086;46.736;15.666;2023-03-01T12:46:10;17.77;;;9.38;;
55216;SDS011;41086;46.736;15.666;2023-03-01T12:51:16;30.75;;;15.93;;
55216;SDS011;41086;46.736;15.666;2023-03-01T12:53:47;31.40;;;16.52;;
55216;SDS011;41086;46.736;15.666;2023-03-01T12:56:16;19.85;;;10.60;;
55216;SDS011;41086;46.736;15.666;2023-03-01T13:04:12;28.65;;;12.02;;
55216;SDS011;41086;46.736;15.666;2023-03-01T13:09:22;21.45;;;10.93;;
55216;SDS011;41086;46.736;15.666;2023-03-01T13:12:02;22.30;;;11.65;;
55216;SDS011;41086;46.736;15.666;2023-03-01T13:14:35;26.08;;;12.48;;
55216;SDS011;41086;46.736;15.666;2023-03-01T13:17:03;25.98;;;12.23;;
55216;SDS011;41086;46.736;15.666;2023-03-01T13:19:30;29.27;;;12.02;;
55216;SDS011;41086;46.736;15.666;2023-03-01T13:21:58;24.40;;;11.25;;
55216;SDS011;41086;46.736;15.666;2023-03-01T13:24:33;22.48;;;10.95;;
55216;SDS011;41086;46.736;15.666;2023-03-01T13:32:24;35.60;;;12.30;;
55216;SDS011;41086;46.736;15.666;2023-03-01T13:37:41;31.98;;;13.10;;
55216;SDS011;41086;46.736;15.666;2023-03-01T13:42:45;29.23;;;12.10;;
55216;SDS011;41086;46.736;15.666;2023-03-01T13:45:41;26.33;;;12.95;;
55216;SDS011;41086;46.736;15.666;2023-03-01T13:48:18;18.55;;;11.88;;
55216;SDS011;41086;46.736;15.666;2023-03-01T13:50:55;33.90;;;14.80;;
55216;SDS011;41086;46.736;15.666;2023-03-01T13:53:28;29.80;;;14.20;;
55216;SDS011;41086;46.736;15.666;2023-03-01T13:56:06;24.00;;;12.48;;
55216;SDS011;41086;46.736;15.666;2023-03-01T14:01:31;31.38;;;14.77;;
55216;SDS011;41086;46.736;15.666;2023-03-01T14:04:00;32.85;;;15.70;;
55216;SDS011;41086;46.736;15.666;2023-03-01T14:06:44;32.13;;;15.35;;
55216;SDS011;41086;46.736;15.666;2023-03-01T14:09:25;26.90;;;15.02;;
55216;SDS011;41086;46.736;15.666;2023-03-01T14:15:02;29.20;;;13.05;;
55216;SDS011;41086;46.736;15.666;2023-03-01T14:17:38;27.40;;;12.68;;
55216;SDS011;41086;46.736;15.666;2023-03-01T14:20:29;30.15;;;14.40;;
55216;SDS011;41086;46.736;15.666;2023-03-01T14:22:59;30.25;;;15.43;;
55216;SDS011;41086;46.736;15.666;2023-03-01T14:25:30;29.73;;;14.65;;
55216;SDS011;41086;46.736;15.666;2023-03-01T14:30:48;32.08;;;14.55;;
55216;SDS011;41086;46.736;15.666;2023-03-01T14:38:31;27.83;;;15.90;;
55216;SDS011;41086;46.736;15.666;2023-03-01T14:41:24;27.85;;;14.13;;
55216;SDS011;41086;46.736;15.666;2023-03-01T14:43:55;23.95;;;12.60;;
55216;SDS011;41086;46.736;15.666;2023-03-01T14:46:26;31.48;;;13.15;;
55216;SDS011;41086;46.736;15.666;2023-03-01T14:48:58;16.25;;;9.43;;
55216;SDS011;41086;46.736;15.666;2023-03-01T14:51:29;25.10;;;12.73;;
55216;SDS011;41086;46.736;15.666;2023-03-01T14:56:23;28.35;;;13.98;;
55216;SDS011;41086;46.736;15.666;2023-03-01T14:58:51;25.23;;;12.07;;
55216;SDS011;41086;46.736;15.666;2023-03-01T15:01:19;30.70;;;13.43;;
55216;SDS011;41086;46.736;15.666;2023-03-01T15:03:46;31.40;;;15.73;;
55216;SDS011;41086;46.736;15.666;2023-03-01T15:06:19;28.65;;;13.68;;
55216;SDS011;41086;46.736;15.666;2023-03-01T15:08:49;26.95;;;13.75;;
55216;SDS011;41086;46.736;15.666;2023-03-01T15:13:58;28.08;;;13.55;;
55216;SDS011;41086;46.736;15.666;2023-03-01T15:16:26;27.80;;;15.02;;
55216;SDS011;41086;46.736;15.666;2023-03-01T15:18:56;35.05;;;13.13;;
55216;SDS011;41086;46.736;15.666;2023-03-01T15:21:26;29.70;;;15.38;;
55216;SDS011;41086;46.736;15.666;2023-03-01T15:24:14;30.92;;;14.73;;
55216;SDS011;41086;46.736;15.666;2023-03-01T15:26:56;30.77;;;14.80;;
55216;SDS011;41086;46.736;15.666;2023-03-01T15:29:28;29.40;;;14.38;;
55216;SDS011;41086;46.736;15.666;2023-03-01T15:32:01;34.42;;;16.85;;
55216;SDS011;41086;46.736;15.666;2023-03-01T15:34:33;36.53;;;16.02;;
55216;SDS011;41086;46.736;15.666;2023-03-01T15:37:04;28.83;;;15.60;;
55216;SDS011;41086;46.736;15.666;2023-03-01T15:39:42;24.77;;;12.90;;
55216;SDS011;41086;46.736;15.666;2023-03-01T15:45:10;30.40;;;15.35;;
55216;SDS011;41086;46.736;15.666;2023-03-01T15:47:39;22.75;;;11.23;;
55216;SDS011;41086;46.736;15.666;2023-03-01T15:50:19;27.20;;;13.75;;
55216;SDS011;41086;46.736;15.666;2023-03-01T15:52:49;31.10;;;14.35;;
55216;SDS011;41086;46.736;15.666;2023-03-01T15:55:17;35.60;;;14.73;;
55216;SDS011;41086;46.736;15.666;2023-03-01T15:58:12;28.40;;;12.18;;
55216;SDS011;41086;46.736;15.666;2023-03-01T16:00:41;26.42;;;12.80;;
55216;SDS011;41086;46.736;15.666;2023-03-01T16:03:27;35.55;;;15.55;;
55216;SDS011;41086;46.736;15.666;2023-03-01T16:05:55;29.30;;;14.40;;
55216;SDS011;41086;46.736;15.666;2023-03-01T16:08:22;26.70;;;11.85;;
55216;SDS011;41086;46.736;15.666;2023-03-01T16:10:49;26.15;;;11.88;;
55216;SDS011;41086;46.736;15.666;2023-03-01T16:13:20;23.65;;;13.18;;
55216;SDS011;41086;46.736;15.666;2023-03-01T16:15:51;27.02;;;13.45;;
55216;SDS011;41086;46.736;15.666;2023-03-01T16:18:25;29.70;;;16.10;;
55216;SDS011;41086;46.736;15.666;2023-03-01T16:23:26;29.98;;;13.75;;
55216;SDS011;41086;46.736;15.666;2023-03-01T16:25:58;26.00;;;13.20;;
55216;SDS011;41086;46.736;15.666;2023-03-01T16:28:26;33.08;;;15.55;;
55216;SDS011;41086;46.736;15.666;2023-03-01T16:30:55;23.95;;;12.10;;
55216;SDS011;41086;46.736;15.666;2023-03-01T16:33:23;24.33;;;10.93;;
55216;SDS011;41086;46.736;15.666;2023-03-01T16:35:59;25.92;;;12.80;;
55216;SDS011;41086;46.736;15.666;2023-03-01T16:38:47;30.08;;;14.00;;
55216;SDS011;41086;46.736;15.666;2023-03-01T16:41:22;44.35;;;20.15;;
55216;SDS011;41086;46.736;15.666;2023-03-01T16:43:58;35.05;;;19.42;;
55216;SDS011;41086;46.736;15.666;2023-03-01T16:46:31;36.83;;;17.55;;
55216;SDS011;41086;46.736;15.666;2023-03-01T16:49:00;47.90;;;22.25;;
55216;SDS011;41086;46.736;15.666;2023-03-01T16:51:41;34.58;;;16.50;;
55216;SDS011;41086;46.736;15.666;2023-03-01T16:54:12;55.85;;;17.85;;
55216;SDS011;41086;46.736;15.666;2023-03-01T16:56:46;39.92;;;20.25;;
55216;SDS011;41086;46.736;15.666;2023-03-01T17:01:40;20.63;;;11.00;;
55216;SDS011;41086;46.736;15.666;2023-03-01T17:04:10;30.50;;;15.32;;
55216;SDS011;41086;46.736;15.666;2023-03-01T17:06:39;38.75;;;19.15;;
55216;SDS011;41086;46.736;15.666;2023-03-01T17:09:11;26.48;;;15.10;;
55216;SDS011;41086;46.736;15.666;2023-03-01T17:11:42;41.10;;;20.42;;
55216;SDS011;41086;46.736;15.666;2023-03-01T17:14:13;48.28;;;22.95;;
55216;SDS011;41086;46.736;15.666;2023-03-01T17:16:45;27.10;;;12.23;;
55216;SDS011;41086;46.736;15.666;2023-03-01T17:19:13;26.65;;;14.30;;
55216;SDS011;41086;46.736;15.666;2023-03-01T17:21:49;36.67;;;19.92;;
55216;SDS011;41086;46.736;15.666;2023-03-01T17:24:19;38.92;;;19.48;;
55216;SDS011;41086;46.736;15.666;2023-03-01T17:26:46;31.35;;;16.75;;